createdAt,value
2022-10-01T00:03:02.919Z,100418.53
2022-10-01T00:08:04.426Z,100398.00
2022-10-01T00:13:06.611Z,100396.91
2022-10-01T00:18:09.680Z,100395.03
2022-10-01T00:23:12.583Z,100382.25
2022-10-01T00:28:14.065Z,100377.03
2022-10-01T00:33:15.559Z,100373.19
2022-10-01T00:38:17.007Z,100354.22
2022-10-01T00:43:31.707Z,100352.28
2022-10-01T00:48:40.041Z,100347.22
2022-10-01T00:53:43.742Z,100337.97
2022-10-01T00:58:45.640Z,100326.50
2022-10-01T01:03:47.667Z,100323.13
2022-10-01T01:08:55.214Z,100318.75
2022-10-01T01:14:10.882Z,100314.09
2022-10-01T01:19:34.215Z,100312.03
2022-10-01T01:24:57.592Z,100296.25
2022-10-01T01:30:03.664Z,100297.09
2022-10-01T01:35:10.099Z,100278.78
2022-10-01T01:40:15.364Z,100268.91
2022-10-01T01:45:25.953Z,100243.75
2022-10-01T01:50:34.486Z,100243.50
2022-10-01T01:55:37.111Z,100231.66
2022-10-01T02:00:39.189Z,100225.16
2022-10-01T02:06:04.829Z,100222.53
2022-10-01T02:11:33.857Z,100212.94
2022-10-01T02:17:01.992Z,100211.75
2022-10-01T02:22:12.801Z,100206.59
2022-10-01T02:27:23.570Z,100198.66
2022-10-01T02:32:28.392Z,100183.97
2022-10-01T02:37:30.162Z,100187.88
2022-10-01T02:42:35.437Z,100176.69
2022-10-01T02:47:43.594Z,100174.81
2022-10-01T02:52:55.570Z,100163.63
2022-10-01T02:57:58.091Z,100164.22
2022-10-01T03:02:59.629Z,100152.38
2022-10-01T03:08:01.523Z,100141.81
2022-10-01T03:13:03.077Z,100148.53
2022-10-01T03:18:04.492Z,100147.03
2022-10-01T03:23:06.033Z,100137.31
2022-10-01T03:28:07.493Z,100126.97
2022-10-01T03:33:08.979Z,100130.75
2022-10-01T03:38:10.484Z,100125.53
2022-10-01T03:43:12.208Z,100123.34
2022-10-01T03:48:13.948Z,100123.38
2022-10-01T03:53:15.390Z,100109.47
2022-10-01T03:58:18.889Z,100098.41
2022-10-01T04:03:20.678Z,100104.66
2022-10-01T04:08:24.551Z,100092.00
2022-10-01T04:13:26.270Z,100088.06
2022-10-01T04:18:28.032Z,100083.44
2022-10-01T04:23:29.435Z,100067.59
2022-10-01T04:28:31.685Z,100059.50
2022-10-01T04:33:33.144Z,100039.34
2022-10-01T04:38:34.964Z,100041.78
2022-10-01T04:43:36.909Z,100026.31
2022-10-01T04:48:38.327Z,100016.78
2022-10-01T04:53:39.768Z,99996.69
2022-10-01T04:58:41.225Z,99978.69
2022-10-01T05:03:42.636Z,99978.78
2022-10-01T05:08:44.135Z,99979.63
2022-10-01T05:13:45.552Z,99967.50
2022-10-01T05:18:46.971Z,99954.47
2022-10-01T05:23:48.531Z,99940.50
2022-10-01T05:28:51.097Z,99937.09
2022-10-01T05:33:52.584Z,99929.75
2022-10-01T05:38:54.156Z,99922.97
2022-10-01T05:43:55.608Z,99918.41
2022-10-01T05:48:57.013Z,99920.59
2022-10-01T05:54:02.377Z,99900.34
2022-10-01T05:59:04.506Z,99908.78
2022-10-01T06:04:05.986Z,99899.47
2022-10-01T06:09:07.488Z,99892.41
2022-10-01T06:14:08.917Z,99899.34
2022-10-01T06:19:10.494Z,99893.09
2022-10-01T06:24:11.996Z,99887.72
2022-10-01T06:29:13.476Z,99869.19
2022-10-01T06:34:14.898Z,99871.59
2022-10-01T06:39:17.054Z,99850.97
2022-10-01T06:44:20.368Z,99847.50
2022-10-01T06:49:22.676Z,99841.22
2022-10-01T06:54:27.238Z,99838.31
2022-10-01T06:59:28.632Z,99834.38
2022-10-01T07:04:30.113Z,99825.78
2022-10-01T07:09:31.548Z,99828.25
2022-10-01T07:14:33.257Z,99821.47
2022-10-01T07:19:34.685Z,99823.56
2022-10-01T07:24:36.132Z,99816.97
2022-10-01T07:29:37.576Z,99809.97
2022-10-01T07:34:42.531Z,99809.66
2022-10-01T07:39:44.104Z,99800.91
2022-10-01T07:44:45.515Z,99800.75
2022-10-01T07:49:46.929Z,99794.72
2022-10-01T07:54:48.604Z,99785.97
2022-10-01T07:59:54.883Z,99794.59
2022-10-01T08:05:15.580Z,99781.66
2022-10-01T08:10:19.092Z,99781.34
2022-10-01T08:15:20.513Z,99773.72
2022-10-01T08:20:22.023Z,99768.06
2022-10-01T08:25:23.483Z,99769.00
2022-10-01T08:30:25.405Z,99764.28
2022-10-01T08:35:28.463Z,99758.25
2022-10-01T08:40:33.879Z,99765.00
2022-10-01T08:45:51.022Z,99756.50
2022-10-01T08:50:57.486Z,99746.72
2022-10-01T08:56:01.559Z,99749.41
2022-10-01T09:01:03.292Z,99750.50
2022-10-01T09:06:21.933Z,99763.56
2022-10-01T09:11:58.617Z,99756.66
2022-10-01T09:17:10.781Z,99748.06
2022-10-01T09:22:27.785Z,99751.78
2022-10-01T09:27:29.326Z,99745.22
2022-10-01T09:32:38.589Z,99747.56
2022-10-01T09:37:51.769Z,99731.50
2022-10-01T09:42:53.328Z,99736.28
2022-10-01T09:48:04.625Z,99738.69
2022-10-01T09:53:13.637Z,99726.72
2022-10-01T09:58:18.592Z,99742.25
2022-10-01T10:03:31.884Z,99746.63
2022-10-01T10:08:40.037Z,99750.78
2022-10-01T10:13:50.156Z,99743.69
2022-10-01T10:18:54.336Z,99735.56
2022-10-01T10:23:59.263Z,99733.03
2022-10-01T10:29:03.011Z,99737.75
2022-10-01T10:34:18.444Z,99738.22
2022-10-01T10:39:24.480Z,99733.09
2022-10-01T10:44:31.923Z,99747.34
2022-10-01T10:49:43.411Z,99739.72
2022-10-01T10:54:48.229Z,99739.78
2022-10-01T11:00:01.849Z,99743.13
2022-10-01T11:05:20.341Z,99735.06
2022-10-01T11:10:27.674Z,99724.69
2022-10-01T11:15:41.997Z,99730.72
2022-10-01T11:21:01.489Z,99757.91
2022-10-01T11:26:11.941Z,99770.69
2022-10-01T11:31:29.564Z,99763.56
2022-10-01T11:36:42.675Z,99783.66
2022-10-01T11:41:50.037Z,99778.97
2022-10-01T11:47:08.599Z,99782.19
2022-10-01T11:52:33.072Z,99797.50
2022-10-01T11:57:53.120Z,99796.84
2022-10-01T12:03:02.069Z,99802.41
2022-10-01T12:08:14.791Z,99802.44
2022-10-01T12:13:16.140Z,99814.91
2022-10-01T12:18:20.481Z,99815.63
2022-10-01T12:23:28.324Z,99827.53
2022-10-01T12:29:00.387Z,99840.34
2022-10-01T12:34:24.127Z,99845.44
2022-10-01T12:39:40.928Z,99857.94
2022-10-01T12:45:01.322Z,99855.97
2022-10-01T12:50:24.633Z,99855.06
2022-10-01T12:55:47.621Z,99874.88
2022-10-01T13:01:03.401Z,99876.78
2022-10-01T13:06:22.346Z,99898.78
2022-10-01T13:11:53.173Z,99902.81
2022-10-01T13:17:20.172Z,99927.88
2022-10-01T13:22:41.275Z,99953.53
2022-10-01T13:27:49.498Z,99962.66
2022-10-01T13:33:00.756Z,99962.66
2022-10-01T13:38:14.352Z,99963.69
2022-10-01T13:43:18.750Z,99972.91
2022-10-01T13:48:20.475Z,99980.44
2022-10-01T13:53:25.413Z,99984.97
2022-10-01T13:58:29.593Z,99978.88
2022-10-01T14:03:49.802Z,99980.88
2022-10-01T14:09:00.376Z,99986.97
2022-10-01T14:14:30.424Z,99985.53
2022-10-01T14:19:32.303Z,100004.31
2022-10-01T14:24:48.872Z,100009.59
2022-10-01T14:30:10.826Z,100030.22
2022-10-01T14:35:36.832Z,100025.72
2022-10-01T14:40:41.428Z,100036.56
2022-10-01T14:46:03.087Z,100033.16
2022-10-01T14:51:20.545Z,100039.63
2022-10-01T14:56:22.794Z,100048.00
2022-10-01T15:01:25.421Z,100036.91
2022-10-01T15:06:29.650Z,100060.69
2022-10-01T15:11:33.412Z,100066.06
2022-10-01T15:16:36.623Z,100066.06
2022-10-01T15:21:54.425Z,100065.69
2022-10-01T15:26:57.881Z,100080.09
2022-10-01T15:32:00.556Z,100086.97
2022-10-01T15:37:03.698Z,100098.25
2022-10-01T15:42:27.134Z,100104.34
2022-10-01T15:47:39.317Z,100106.25
2022-10-01T15:52:50.574Z,100116.00
2022-10-01T15:57:58.314Z,100122.56
2022-10-01T16:03:00.510Z,100123.75
2022-10-01T16:08:02.270Z,100137.22
2022-10-01T16:13:36.557Z,100156.50
2022-10-01T16:18:38.605Z,100161.50
2022-10-01T16:23:40.141Z,100165.66
2022-10-01T16:28:42.366Z,100180.34
2022-10-01T16:33:43.980Z,100191.47
2022-10-01T16:38:46.295Z,100204.25
2022-10-01T16:43:49.897Z,100212.41
2022-10-01T16:48:51.963Z,100224.13
2022-10-01T16:53:55.050Z,100227.69
2022-10-01T16:58:56.482Z,100237.44
2022-10-01T17:03:57.893Z,100248.69
2022-10-01T17:08:59.970Z,100259.09
2022-10-01T17:14:08.201Z,100270.13
2022-10-01T17:19:10.723Z,100270.00
2022-10-01T17:24:12.853Z,100273.47
2022-10-01T17:29:14.589Z,100279.13
2022-10-01T17:34:16.149Z,100301.53
2022-10-01T17:39:17.574Z,100305.84
2022-10-01T17:44:19.130Z,100310.06
2022-10-01T17:49:21.601Z,100318.19
2022-10-01T17:54:23.285Z,100331.97
2022-10-01T17:59:25.481Z,100327.22
2022-10-01T18:04:26.932Z,100344.53
2022-10-01T18:09:28.341Z,100354.00
2022-10-01T18:14:30.160Z,100369.34
2022-10-01T18:19:52.929Z,100371.47
2022-10-01T18:24:53.178Z,100381.31
2022-10-01T18:29:54.615Z,100393.69
2022-10-01T18:34:58.858Z,100398.69
2022-10-01T18:40:07.033Z,100408.59
2022-10-01T18:45:43.395Z,100420.19
2022-10-01T18:51:23.472Z,100428.88
2022-10-01T18:57:09.081Z,100432.19
2022-10-01T19:02:20.802Z,100435.75
2022-10-01T19:07:59.699Z,100444.00
2022-10-01T19:13:11.709Z,100455.66
2022-10-01T19:18:26.391Z,100459.50
2022-10-01T19:23:58.393Z,100448.75
2022-10-01T19:29:11.944Z,100469.81
2022-10-01T19:34:24.657Z,100467.94
2022-10-01T19:39:29.935Z,100471.28
2022-10-01T19:44:45.929Z,100477.44
2022-10-01T19:49:55.527Z,100481.56
2022-10-01T19:55:00.737Z,100468.50
2022-10-01T20:00:11.581Z,100500.84
2022-10-01T20:05:18.674Z,100500.28
2022-10-01T20:10:43.706Z,100506.50
2022-10-01T20:16:07.561Z,100509.31
2022-10-01T20:21:42.918Z,100510.25
2022-10-01T20:26:47.108Z,100518.03
2022-10-01T20:31:54.159Z,100520.03
2022-10-01T20:37:14.714Z,100529.72
2022-10-01T20:42:24.121Z,100544.94
2022-10-01T20:47:36.488Z,100562.00
2022-10-01T20:52:47.180Z,100559.97
2022-10-01T20:57:54.542Z,100574.91
2022-10-01T21:03:11.249Z,100571.34
2022-10-01T21:08:42.319Z,100586.41
2022-10-01T21:13:53.413Z,100579.09
2022-10-01T21:19:06.948Z,100593.25
2022-10-01T21:24:31.043Z,100594.91
2022-10-01T21:29:57.694Z,100610.59
2022-10-01T21:35:25.175Z,100617.69
2022-10-01T21:41:01.130Z,100627.19
2022-10-01T21:46:27.274Z,100629.63
2022-10-01T21:51:38.388Z,100631.22
2022-10-01T21:56:50.619Z,100630.78
2022-10-01T22:02:04.728Z,100632.22
2022-10-01T22:07:28.066Z,100643.59
2022-10-01T22:12:32.509Z,100648.06
2022-10-01T22:17:34.397Z,100652.53
2022-10-01T22:22:38.655Z,100659.66
2022-10-01T22:27:47.676Z,100657.88
2022-10-01T22:32:55.006Z,100662.03
2022-10-01T22:38:02.749Z,100651.44
2022-10-01T22:43:11.079Z,100676.09
2022-10-01T22:48:17.851Z,100676.78
2022-10-01T22:53:54.483Z,100675.50
2022-10-01T22:59:19.309Z,100669.38
2022-10-01T23:04:39.556Z,100672.56
2022-10-01T23:09:53.184Z,100672.47
2022-10-01T23:14:57.548Z,100670.78
2022-10-01T23:20:29.425Z,100692.66
2022-10-01T23:25:50.643Z,100697.88
2022-10-01T23:31:04.275Z,100704.91
2022-10-01T23:36:30.855Z,100707.69
2022-10-01T23:41:47.692Z,100696.66
2022-10-01T23:46:51.944Z,100705.16
2022-10-01T23:52:13.012Z,100715.19
2022-10-01T23:57:21.004Z,100723.03
